createdAt,value
2022-10-06T00:00:49.457Z,15.2
2022-10-06T00:01:49.507Z,15.2
2022-10-06T00:02:49.481Z,15.2
2022-10-06T00:03:49.437Z,15.2
2022-10-06T00:04:49.466Z,15.2
2022-10-06T00:05:49.437Z,15.2
2022-10-06T00:06:49.451Z,15.2
2022-10-06T00:07:49.447Z,15.3
2022-10-06T00:08:49.444Z,15.2
2022-10-06T00:09:49.448Z,15.3
2022-10-06T00:10:49.461Z,15.2
2022-10-06T00:11:49.441Z,15.2
2022-10-06T00:12:49.451Z,15.2
2022-10-06T00:13:49.463Z,15.2
2022-10-06T00:14:49.460Z,15.2
2022-10-06T00:15:49.503Z,15.2
2022-10-06T00:16:49.464Z,15.2
2022-10-06T00:17:49.449Z,15.2
2022-10-06T00:18:49.489Z,15.2
2022-10-06T00:19:49.444Z,15.2
2022-10-06T00:20:49.460Z,15.2
2022-10-06T00:21:49.459Z,15.2
2022-10-06T00:22:49.454Z,15.2
2022-10-06T00:23:49.441Z,15.2
2022-10-06T00:24:49.440Z,15.2
2022-10-06T00:25:49.432Z,15.2
2022-10-06T00:26:49.439Z,15.2
2022-10-06T00:27:49.444Z,15.2
2022-10-06T00:28:49.533Z,15.2
2022-10-06T00:29:49.455Z,15.2
2022-10-06T00:30:49.502Z,15.2
2022-10-06T00:31:49.470Z,15.2
2022-10-06T00:32:49.437Z,15.2
2022-10-06T00:33:49.458Z,15.2
2022-10-06T00:34:49.487Z,15.2
2022-10-06T00:35:49.442Z,15.2
2022-10-06T00:36:49.451Z,15.2
2022-10-06T00:37:49.430Z,15.2
2022-10-06T00:38:49.431Z,15.2
2022-10-06T00:39:49.477Z,15.2
2022-10-06T00:40:49.435Z,15.2
2022-10-06T00:41:49.463Z,15.2
2022-10-06T00:42:49.458Z,15.2
2022-10-06T00:43:49.457Z,15.2
2022-10-06T00:44:49.454Z,15.2
2022-10-06T00:45:49.506Z,15.2
2022-10-06T00:46:49.451Z,15.2
2022-10-06T00:47:49.439Z,15.2
2022-10-06T00:48:49.435Z,15.2
2022-10-06T00:49:49.438Z,15.2
2022-10-06T00:50:49.644Z,15.2
2022-10-06T00:51:49.453Z,15.2
2022-10-06T00:52:49.439Z,15.2
2022-10-06T00:53:49.421Z,15.2
2022-10-06T00:54:49.428Z,15.2
2022-10-06T00:55:49.452Z,15.2
2022-10-06T00:56:49.445Z,15.2
2022-10-06T00:57:49.444Z,15.3
2022-10-06T00:58:49.449Z,15.2
2022-10-06T00:59:49.461Z,15.2
2022-10-06T01:00:49.445Z,15.2
2022-10-06T01:01:49.529Z,15.2
2022-10-06T01:02:49.524Z,15.2
2022-10-06T01:03:49.448Z,15.2
2022-10-06T01:04:49.425Z,15.2
2022-10-06T01:05:49.449Z,15.2
2022-10-06T01:06:49.414Z,15.2
2022-10-06T01:07:49.439Z,15.3
2022-10-06T01:08:49.425Z,15.2
2022-10-06T01:09:49.431Z,15.2
2022-10-06T01:10:49.445Z,15.2
2022-10-06T01:11:49.423Z,15.2
2022-10-06T01:12:49.454Z,15.2
2022-10-06T01:13:49.455Z,15.3
2022-10-06T01:14:49.427Z,15.2
2022-10-06T01:15:49.531Z,15.3
2022-10-06T01:16:49.447Z,15.3
2022-10-06T01:17:49.432Z,15.2
2022-10-06T01:18:49.441Z,15.3
2022-10-06T01:19:49.440Z,15.3
2022-10-06T01:20:49.466Z,15.3
2022-10-06T01:21:49.435Z,15.2
2022-10-06T01:22:49.424Z,15.3
2022-10-06T01:23:49.435Z,15.2
2022-10-06T01:24:49.431Z,15.3
2022-10-06T01:25:49.440Z,15.3
2022-10-06T01:26:49.431Z,15.3
2022-10-06T01:27:49.433Z,15.2
2022-10-06T01:28:49.463Z,15.2
2022-10-06T01:29:49.442Z,15.3
2022-10-06T01:30:49.486Z,15.2
2022-10-06T01:31:49.448Z,15.2
2022-10-06T01:32:49.418Z,15.2
2022-10-06T01:33:49.430Z,15.2
2022-10-06T01:34:49.456Z,15.2
2022-10-06T01:35:49.434Z,15.2
2022-10-06T01:36:49.440Z,15.2
2022-10-06T01:37:49.424Z,15.3
2022-10-06T01:38:49.435Z,15.2
2022-10-06T01:39:49.442Z,15.2
2022-10-06T01:40:49.444Z,15.3
2022-10-06T01:41:49.455Z,15.2
2022-10-06T01:42:49.444Z,15.3
2022-10-06T01:43:49.444Z,15.2
2022-10-06T01:44:49.462Z,15.2
2022-10-06T01:45:49.433Z,15.2
2022-10-06T01:46:49.559Z,15.2
2022-10-06T01:47:49.437Z,15.2
2022-10-06T01:48:49.453Z,15.2
2022-10-06T01:49:49.419Z,15.3
2022-10-06T01:50:49.428Z,15.2
2022-10-06T01:51:49.426Z,15.2
2022-10-06T01:52:49.432Z,15.2
2022-10-06T01:53:49.438Z,15.2
2022-10-06T01:54:49.435Z,15.2
2022-10-06T01:55:49.445Z,15.2
2022-10-06T01:56:49.443Z,15.2
2022-10-06T01:57:49.455Z,15.2
2022-10-06T01:58:49.450Z,15.2
2022-10-06T01:59:54.445Z,15.2
2022-10-06T02:00:49.422Z,15.3
2022-10-06T02:01:49.494Z,15.3
2022-10-06T02:02:49.454Z,15.2
2022-10-06T02:03:49.453Z,15.2
2022-10-06T02:04:49.432Z,15.2
2022-10-06T02:05:49.452Z,15.2
2022-10-06T02:06:49.419Z,15.2
2022-10-06T02:07:49.440Z,15.2
2022-10-06T02:08:49.446Z,15.3
2022-10-06T02:09:49.443Z,15.2
2022-10-06T02:10:49.451Z,15.2
2022-10-06T02:11:49.433Z,15.2
2022-10-06T02:12:49.417Z,15.2
2022-10-06T02:13:49.435Z,15.2
2022-10-06T02:14:49.430Z,15.2
2022-10-06T02:15:49.477Z,15.3
2022-10-06T02:16:49.431Z,15.2
2022-10-06T02:17:49.411Z,15.2
2022-10-06T02:18:49.440Z,15.2
2022-10-06T02:19:49.445Z,15.3
2022-10-06T02:20:49.418Z,15.3
2022-10-06T02:21:49.420Z,15.3
2022-10-06T02:22:49.431Z,15.3
2022-10-06T02:23:49.449Z,15.3
2022-10-06T02:24:49.447Z,15.3
2022-10-06T02:25:49.412Z,15.2
2022-10-06T02:26:49.449Z,15.3
2022-10-06T02:27:49.435Z,15.3
2022-10-06T02:28:49.508Z,15.3
2022-10-06T02:29:49.429Z,15.3
2022-10-06T02:30:49.490Z,15.3
2022-10-06T02:31:49.439Z,15.3
2022-10-06T02:32:49.423Z,15.3
2022-10-06T02:33:49.427Z,15.3
2022-10-06T02:34:49.445Z,15.3
2022-10-06T02:35:49.447Z,15.3
2022-10-06T02:36:49.429Z,15.3
2022-10-06T02:37:49.416Z,15.3
2022-10-06T02:38:49.423Z,15.3
2022-10-06T02:39:50.051Z,15.3
2022-10-06T02:40:49.424Z,15.3
2022-10-06T02:41:49.429Z,15.3
2022-10-06T02:42:49.419Z,15.3
2022-10-06T02:43:49.431Z,15.3
2022-10-06T02:44:49.438Z,15.3
2022-10-06T02:45:49.418Z,15.2
2022-10-06T02:46:49.532Z,15.3
2022-10-06T02:47:49.414Z,15.3
2022-10-06T02:48:49.417Z,15.3
2022-10-06T02:49:49.445Z,15.2
2022-10-06T02:50:49.441Z,15.3
2022-10-06T02:51:49.432Z,15.3
2022-10-06T02:52:49.436Z,15.3
2022-10-06T02:53:49.432Z,15.3
2022-10-06T02:54:49.443Z,15.3
2022-10-06T02:55:49.425Z,15.3
2022-10-06T02:56:52.618Z,15.3
2022-10-06T02:57:49.422Z,15.3
2022-10-06T02:58:49.445Z,15.2
2022-10-06T02:59:49.406Z,15.3
2022-10-06T03:00:49.449Z,15.2
2022-10-06T03:01:49.509Z,15.3
2022-10-06T03:02:49.600Z,15.3
2022-10-06T03:03:49.420Z,15.3
2022-10-06T03:04:49.406Z,15.3
2022-10-06T03:05:49.434Z,15.3
2022-10-06T03:06:49.404Z,15.3
2022-10-06T03:07:49.431Z,15.3
2022-10-06T03:08:49.446Z,15.3
2022-10-06T03:09:49.440Z,15.2
2022-10-06T03:10:49.432Z,15.3
2022-10-06T03:11:49.421Z,15.3
2022-10-06T03:12:49.432Z,15.3
2022-10-06T03:13:49.430Z,15.2
2022-10-06T03:14:49.418Z,15.2
2022-10-06T03:15:49.515Z,15.3
2022-10-06T03:16:49.388Z,15.3
2022-10-06T03:17:49.425Z,15.3
2022-10-06T03:18:49.423Z,15.3
2022-10-06T03:19:49.420Z,15.3
2022-10-06T03:20:49.437Z,15.2
2022-10-06T03:21:49.436Z,15.3
2022-10-06T03:22:49.444Z,15.3
2022-10-06T03:23:49.428Z,15.3
2022-10-06T03:24:49.423Z,15.3
2022-10-06T03:25:49.446Z,15.2
2022-10-06T03:26:49.431Z,15.3
2022-10-06T03:27:49.431Z,15.3
2022-10-06T03:28:49.509Z,15.3
2022-10-06T03:29:49.418Z,15.3
2022-10-06T03:30:49.417Z,15.2
2022-10-06T03:31:49.524Z,15.2
2022-10-06T03:32:49.409Z,15.3
2022-10-06T03:33:49.435Z,15.3
2022-10-06T03:34:49.407Z,15.3
2022-10-06T03:35:49.433Z,15.3
2022-10-06T03:36:49.437Z,15.3
2022-10-06T03:37:49.418Z,15.3
2022-10-06T03:38:49.413Z,15.3
2022-10-06T03:39:49.418Z,15.2
2022-10-06T03:40:49.423Z,15.3
2022-10-06T03:41:49.456Z,15.2
2022-10-06T03:42:49.421Z,15.3
2022-10-06T03:43:49.424Z,15.2
2022-10-06T03:44:49.422Z,15.3
2022-10-06T03:45:49.417Z,15.2
2022-10-06T03:46:49.603Z,15.3
2022-10-06T03:47:49.428Z,15.2
2022-10-06T03:48:49.425Z,15.3
2022-10-06T03:49:49.429Z,15.3
2022-10-06T03:50:49.428Z,15.3
2022-10-06T03:51:49.409Z,15.2
2022-10-06T03:52:49.419Z,15.3
2022-10-06T03:53:49.404Z,15.2
2022-10-06T03:54:49.407Z,15.2
2022-10-06T03:55:49.428Z,15.2
2022-10-06T03:56:49.431Z,15.3
2022-10-06T03:57:49.439Z,15.2
2022-10-06T03:58:49.402Z,15.3
2022-10-06T03:59:49.401Z,15.3
2022-10-06T04:00:49.438Z,15.3
2022-10-06T04:01:49.487Z,15.3
2022-10-06T04:02:49.422Z,15.3
2022-10-06T04:03:49.427Z,15.3
2022-10-06T04:04:49.410Z,15.3
2022-10-06T04:05:49.404Z,15.2
2022-10-06T04:06:49.441Z,15.2
2022-10-06T04:07:49.423Z,15.2
2022-10-06T04:08:49.409Z,15.3
2022-10-06T04:09:49.420Z,15.3
2022-10-06T04:10:49.421Z,15.2
2022-10-06T04:11:49.402Z,15.3
2022-10-06T04:12:49.430Z,15.3
2022-10-06T04:13:49.417Z,15.3
2022-10-06T04:14:49.400Z,15.3
2022-10-06T04:15:49.417Z,15.3
2022-10-06T04:16:49.406Z,15.3
2022-10-06T04:17:49.423Z,15.3
2022-10-06T04:18:49.422Z,15.3
2022-10-06T04:19:49.401Z,15.3
2022-10-06T04:20:49.407Z,15.3
2022-10-06T04:21:49.420Z,15.3
2022-10-06T04:22:49.415Z,15.3
2022-10-06T04:23:49.444Z,15.3
2022-10-06T04:24:49.420Z,15.2
2022-10-06T04:25:53.797Z,15.3
2022-10-06T04:26:49.427Z,15.3
2022-10-06T04:27:49.416Z,15.3
2022-10-06T04:28:49.483Z,15.3
2022-10-06T04:29:49.419Z,15.3
2022-10-06T04:30:49.409Z,15.3
2022-10-06T04:31:49.486Z,15.3
2022-10-06T04:32:49.426Z,15.3
2022-10-06T04:33:49.441Z,15.3
2022-10-06T04:34:49.395Z,15.3
2022-10-06T04:35:49.409Z,15.3
2022-10-06T04:36:49.409Z,15.3
2022-10-06T04:37:49.409Z,15.3
2022-10-06T04:38:49.427Z,15.3
2022-10-06T04:39:49.429Z,15.2
2022-10-06T04:40:49.398Z,15.2
2022-10-06T04:41:49.411Z,15.3
2022-10-06T04:42:49.398Z,15.3
2022-10-06T04:43:49.422Z,15.3
2022-10-06T04:44:49.405Z,15.3
2022-10-06T04:45:49.449Z,15.3
2022-10-06T04:46:49.525Z,15.3
2022-10-06T04:47:49.428Z,15.3
2022-10-06T04:48:49.440Z,15.3
2022-10-06T04:49:49.453Z,15.2
2022-10-06T04:50:49.383Z,15.3
2022-10-06T04:51:49.500Z,15.2
2022-10-06T04:52:49.401Z,15.3
2022-10-06T04:53:49.393Z,15.3
2022-10-06T04:54:49.420Z,15.3
2022-10-06T04:55:49.414Z,15.3
2022-10-06T04:56:49.394Z,15.3
2022-10-06T04:57:49.420Z,15.3
2022-10-06T04:58:49.412Z,15.3
2022-10-06T04:59:49.393Z,15.3
2022-10-06T05:00:49.486Z,15.3
2022-10-06T05:01:49.492Z,15.3
2022-10-06T05:02:49.398Z,15.3
2022-10-06T05:03:49.420Z,15.3
2022-10-06T05:04:49.423Z,15.2
2022-10-06T05:05:49.434Z,15.2
2022-10-06T05:06:49.416Z,15.2
2022-10-06T05:07:49.414Z,15.3
2022-10-06T05:08:49.399Z,15.3
2022-10-06T05:09:49.403Z,15.2
2022-10-06T05:10:49.427Z,15.3
2022-10-06T05:11:49.413Z,15.3
2022-10-06T05:12:49.407Z,15.3
2022-10-06T05:13:49.415Z,15.3
2022-10-06T05:14:49.412Z,15.3
2022-10-06T05:15:49.422Z,15.2
2022-10-06T05:16:49.522Z,15.3
2022-10-06T05:17:49.399Z,15.2
2022-10-06T05:18:49.404Z,15.2
2022-10-06T05:19:49.411Z,15.3
2022-10-06T05:20:49.403Z,15.3
2022-10-06T05:21:49.413Z,15.3
2022-10-06T05:22:49.419Z,15.3
2022-10-06T05:23:49.395Z,15.3
2022-10-06T05:24:49.389Z,15.2
2022-10-06T05:25:49.420Z,15.2
2022-10-06T05:26:49.415Z,15.2
2022-10-06T05:27:49.403Z,15.2
2022-10-06T05:28:49.467Z,15.2
2022-10-06T05:29:49.417Z,15.2
2022-10-06T05:30:49.412Z,15.2
2022-10-06T05:31:49.473Z,15.3
2022-10-06T05:32:49.415Z,15.3
2022-10-06T05:33:49.402Z,15.3
2022-10-06T05:34:49.413Z,15.2
2022-10-06T05:35:49.399Z,15.2
2022-10-06T05:36:49.408Z,15.3
2022-10-06T05:37:49.420Z,15.2
2022-10-06T05:38:49.406Z,15.2
2022-10-06T05:39:52.255Z,15.3
2022-10-06T05:40:49.417Z,15.3
2022-10-06T05:41:49.387Z,15.3
2022-10-06T05:42:49.419Z,15.3
2022-10-06T05:43:49.403Z,15.2
2022-10-06T05:44:49.397Z,15.3
2022-10-06T05:45:49.433Z,15.3
2022-10-06T05:46:49.421Z,15.2
2022-10-06T05:47:49.411Z,15.2
2022-10-06T05:48:49.448Z,15.2
2022-10-06T05:49:49.414Z,15.2
2022-10-06T05:50:49.411Z,15.2
2022-10-06T05:51:49.418Z,15.3
2022-10-06T05:52:49.379Z,15.2
2022-10-06T05:53:49.416Z,15.2
2022-10-06T05:54:49.402Z,15.2
2022-10-06T05:55:49.390Z,15.2
2022-10-06T05:56:49.408Z,15.2
2022-10-06T05:57:49.405Z,15.2
2022-10-06T05:58:49.395Z,15.2
2022-10-06T05:59:49.410Z,15.2
2022-10-06T06:00:49.410Z,15.3
2022-10-06T06:01:49.519Z,15.2
2022-10-06T06:02:49.493Z,15.2
2022-10-06T06:03:49.400Z,15.2
2022-10-06T06:04:49.376Z,15.2
2022-10-06T06:05:49.387Z,15.3
2022-10-06T06:06:49.398Z,15.3
2022-10-06T06:07:49.398Z,15.3
2022-10-06T06:08:49.387Z,15.2
2022-10-06T06:09:49.441Z,15.2
2022-10-06T06:10:49.405Z,15.2
2022-10-06T06:11:49.399Z,15.3
2022-10-06T06:12:49.402Z,15.3
2022-10-06T06:13:49.397Z,15.3
2022-10-06T06:14:49.401Z,15.2
2022-10-06T06:15:49.413Z,15.3
2022-10-06T06:16:49.458Z,15.3
2022-10-06T06:17:49.385Z,15.3
2022-10-06T06:18:49.403Z,15.3
2022-10-06T06:19:49.414Z,15.3
2022-10-06T06:20:49.390Z,15.3
2022-10-06T06:21:49.401Z,15.3
2022-10-06T06:22:49.382Z,15.2
2022-10-06T06:23:49.418Z,15.3
2022-10-06T06:24:49.406Z,15.2
2022-10-06T06:25:49.411Z,15.3
2022-10-06T06:26:49.385Z,15.2
2022-10-06T06:27:49.417Z,15.3
2022-10-06T06:28:49.438Z,15.2
2022-10-06T06:29:49.384Z,15.2
2022-10-06T06:30:49.431Z,15.3
2022-10-06T06:31:49.392Z,15.2
2022-10-06T06:32:49.402Z,15.2
2022-10-06T06:33:49.378Z,15.3
2022-10-06T06:34:49.383Z,15.3
2022-10-06T06:35:49.411Z,15.3
2022-10-06T06:36:49.375Z,15.3
2022-10-06T06:37:49.395Z,15.3
2022-10-06T06:38:49.400Z,15.3
2022-10-06T06:39:49.406Z,15.2
2022-10-06T06:40:49.386Z,15.3
2022-10-06T06:41:49.412Z,15.2
2022-10-06T06:42:53.640Z,15.3
2022-10-06T06:43:49.398Z,15.3
2022-10-06T06:44:49.382Z,15.2
2022-10-06T06:45:49.453Z,15.2
2022-10-06T06:46:49.396Z,15.3
2022-10-06T06:47:49.405Z,15.2
2022-10-06T06:48:49.398Z,15.3
2022-10-06T06:49:49.415Z,15.2
2022-10-06T06:50:49.388Z,15.3
2022-10-06T06:51:49.410Z,15.3
2022-10-06T06:52:49.387Z,15.3
2022-10-06T06:53:49.396Z,15.2
2022-10-06T06:54:49.392Z,15.2
2022-10-06T06:55:49.386Z,15.3
2022-10-06T06:56:49.415Z,15.3
2022-10-06T06:57:49.405Z,15.2
2022-10-06T06:58:49.387Z,15.3
2022-10-06T06:59:49.423Z,15.3
2022-10-06T07:00:49.400Z,15.2
2022-10-06T07:01:49.481Z,15.2
2022-10-06T07:02:49.391Z,15.2
2022-10-06T07:03:57.178Z,15.2
2022-10-06T07:04:49.375Z,15.2
2022-10-06T07:05:49.396Z,15.2
2022-10-06T07:06:49.381Z,15.2
2022-10-06T07:07:49.390Z,15.2
2022-10-06T07:08:49.377Z,15.2
2022-10-06T07:09:49.410Z,15.2
2022-10-06T07:10:49.388Z,15.2
2022-10-06T07:11:49.396Z,15.3
2022-10-06T07:12:49.395Z,15.2
2022-10-06T07:13:49.401Z,15.3
2022-10-06T07:14:49.380Z,15.3
2022-10-06T07:15:49.460Z,15.3
2022-10-06T07:16:49.394Z,15.3
2022-10-06T07:17:49.388Z,15.3
2022-10-06T07:18:49.371Z,15.3
2022-10-06T07:19:49.378Z,15.3
2022-10-06T07:20:49.432Z,15.3
2022-10-06T07:21:49.406Z,15.3
2022-10-06T07:22:49.392Z,15.3
2022-10-06T07:23:49.371Z,15.3
2022-10-06T07:24:49.389Z,15.3
2022-10-06T07:25:49.416Z,15.3
2022-10-06T07:26:49.377Z,15.3
2022-10-06T07:27:49.392Z,15.3
2022-10-06T07:28:49.387Z,15.3
2022-10-06T07:29:49.399Z,15.3
2022-10-06T07:30:49.374Z,15.3
2022-10-06T07:31:49.372Z,15.3
2022-10-06T07:32:49.370Z,15.3
2022-10-06T07:33:49.381Z,15.3
2022-10-06T07:34:49.389Z,15.3
2022-10-06T07:35:49.385Z,15.3
2022-10-06T07:36:49.419Z,15.3
2022-10-06T07:37:49.398Z,15.3
2022-10-06T07:38:49.383Z,15.3
2022-10-06T07:39:49.369Z,15.3
2022-10-06T07:41:14.562Z,15.3
2022-10-06T07:41:49.402Z,15.3
2022-10-06T07:42:49.382Z,15.3
2022-10-06T07:43:49.389Z,15.3
2022-10-06T07:44:49.396Z,15.3
2022-10-06T07:45:49.431Z,15.3
2022-10-06T07:46:49.389Z,15.3
2022-10-06T07:47:49.367Z,15.3
2022-10-06T07:48:49.374Z,15.3
2022-10-06T07:49:49.391Z,15.3
2022-10-06T07:50:49.377Z,15.3
2022-10-06T07:51:49.380Z,15.3
2022-10-06T07:52:49.394Z,15.3
2022-10-06T07:53:49.382Z,15.3
2022-10-06T07:54:49.366Z,15.3
2022-10-06T07:55:49.370Z,15.3
2022-10-06T07:56:49.388Z,15.3
2022-10-06T07:57:49.398Z,15.3
2022-10-06T07:58:49.384Z,15.3
2022-10-06T07:59:49.397Z,15.3
2022-10-06T08:00:49.378Z,15.3
2022-10-06T08:01:49.507Z,15.3
2022-10-06T08:02:49.464Z,15.3
2022-10-06T08:03:49.394Z,15.4
2022-10-06T08:04:49.373Z,15.3
2022-10-06T08:05:49.377Z,15.3
2022-10-06T08:06:49.397Z,15.3
2022-10-06T08:07:49.390Z,15.3
2022-10-06T08:08:52.814Z,15.3
2022-10-06T08:09:49.378Z,15.3
2022-10-06T08:10:49.386Z,15.3
2022-10-06T08:11:49.392Z,15.3
2022-10-06T08:12:49.405Z,15.3
2022-10-06T08:13:49.381Z,15.3
2022-10-06T08:14:49.395Z,15.3
2022-10-06T08:15:49.409Z,15.3
2022-10-06T08:16:49.367Z,15.3
2022-10-06T08:17:49.386Z,15.3
2022-10-06T08:18:49.378Z,15.4
2022-10-06T08:19:49.367Z,15.4
2022-10-06T08:20:49.384Z,15.4
2022-10-06T08:21:49.376Z,15.3
2022-10-06T08:22:49.392Z,15.4
2022-10-06T08:23:49.382Z,15.4
2022-10-06T08:25:05.254Z,15.4
2022-10-06T08:25:49.382Z,15.4
2022-10-06T08:26:49.363Z,15.4
2022-10-06T08:27:53.401Z,15.4
2022-10-06T08:28:49.368Z,15.4
2022-10-06T08:29:49.386Z,15.4
2022-10-06T08:30:49.365Z,15.4
2022-10-06T08:31:49.451Z,15.3
2022-10-06T08:32:49.367Z,15.4
2022-10-06T08:33:49.397Z,15.4
2022-10-06T08:34:49.388Z,15.3
2022-10-06T08:35:49.363Z,15.4
2022-10-06T08:37:08.656Z,15.3
2022-10-06T08:37:49.379Z,15.3
2022-10-06T08:38:49.426Z,15.4
2022-10-06T08:39:49.370Z,15.3
2022-10-06T08:40:49.383Z,15.3
2022-10-06T08:41:49.386Z,15.4
2022-10-06T08:42:49.370Z,15.3
2022-10-06T08:43:49.376Z,15.4
2022-10-06T08:44:49.418Z,15.4
2022-10-06T08:45:49.530Z,15.4
2022-10-06T08:46:49.380Z,15.4
2022-10-06T08:47:49.662Z,15.4
2022-10-06T08:48:49.369Z,15.4
2022-10-06T08:49:49.391Z,15.4
2022-10-06T08:50:49.370Z,15.4
2022-10-06T08:51:49.359Z,15.4
2022-10-06T08:52:49.379Z,15.4
2022-10-06T08:53:49.368Z,15.4
2022-10-06T08:54:49.406Z,15.4
2022-10-06T08:55:49.379Z,15.4
2022-10-06T08:56:49.379Z,15.4
2022-10-06T08:57:49.383Z,15.4
2022-10-06T08:58:49.355Z,15.4
2022-10-06T08:59:49.419Z,15.4
2022-10-06T09:00:49.364Z,15.4
2022-10-06T09:01:49.592Z,15.4
2022-10-06T09:02:49.482Z,15.4
2022-10-06T09:03:49.378Z,15.4
2022-10-06T09:04:49.398Z,15.3
2022-10-06T09:05:49.368Z,15.4
2022-10-06T09:06:49.378Z,15.4
2022-10-06T09:07:49.374Z,15.3
2022-10-06T09:08:49.374Z,15.3
2022-10-06T09:09:49.358Z,15.3
2022-10-06T09:10:49.374Z,15.3
2022-10-06T09:11:49.379Z,15.3
2022-10-06T09:12:49.351Z,15.3
2022-10-06T09:13:49.375Z,15.3
2022-10-06T09:14:49.368Z,15.3
2022-10-06T09:15:49.410Z,15.4
2022-10-06T09:16:49.381Z,15.4
2022-10-06T09:17:49.384Z,15.4
2022-10-06T09:19:07.199Z,15.4
2022-10-06T09:19:49.387Z,15.4
2022-10-06T09:20:50.129Z,15.4
2022-10-06T09:21:49.410Z,15.3
2022-10-06T09:22:49.371Z,15.3
2022-10-06T09:23:49.351Z,15.3
2022-10-06T09:24:49.373Z,15.3
2022-10-06T09:25:49.384Z,15.3
2022-10-06T09:26:49.396Z,15.3
2022-10-06T09:27:49.376Z,15.3
2022-10-06T09:28:49.372Z,15.3
2022-10-06T09:29:49.364Z,15.3
2022-10-06T09:30:54.561Z,15.3
2022-10-06T09:31:49.480Z,15.3
2022-10-06T09:32:49.379Z,15.3
2022-10-06T09:33:51.859Z,15.3
2022-10-06T09:34:49.377Z,15.3
2022-10-06T09:35:49.410Z,15.3
2022-10-06T09:36:49.364Z,15.3
2022-10-06T09:37:49.379Z,15.3
2022-10-06T09:38:49.386Z,15.3
2022-10-06T09:39:49.361Z,15.3
2022-10-06T09:40:49.384Z,15.3
2022-10-06T09:41:49.358Z,15.3
2022-10-06T09:42:49.370Z,15.3
2022-10-06T09:43:49.441Z,15.3
2022-10-06T09:44:49.382Z,15.3
2022-10-06T09:45:49.346Z,15.3
2022-10-06T09:46:49.461Z,15.3
2022-10-06T09:47:49.381Z,15.3
2022-10-06T09:48:49.366Z,15.3
2022-10-06T09:49:49.364Z,15.3
2022-10-06T09:50:49.364Z,15.3
2022-10-06T09:51:49.412Z,15.3
2022-10-06T09:52:49.383Z,15.3
2022-10-06T09:53:49.374Z,15.3
2022-10-06T09:54:49.368Z,15.3
2022-10-06T09:55:49.346Z,15.3
2022-10-06T09:56:49.363Z,15.3
2022-10-06T09:57:49.372Z,15.3
2022-10-06T09:58:49.498Z,15.3
2022-10-06T09:59:49.379Z,15.3
2022-10-06T10:00:49.412Z,15.3
2022-10-06T10:01:49.365Z,15.3
2022-10-06T10:02:49.422Z,15.3
2022-10-06T10:04:08.345Z,15.3
2022-10-06T10:04:51.521Z,15.3
2022-10-06T10:05:49.364Z,15.3
2022-10-06T10:06:49.524Z,15.3
2022-10-06T10:07:49.387Z,15.3
2022-10-06T10:08:49.358Z,15.3
2022-10-06T10:09:49.376Z,15.3
2022-10-06T10:10:49.359Z,15.3
2022-10-06T10:11:49.365Z,15.3
2022-10-06T10:12:49.373Z,15.3
2022-10-06T10:13:49.382Z,15.3
2022-10-06T10:14:49.371Z,15.3
2022-10-06T10:15:49.412Z,15.3
2022-10-06T10:16:53.112Z,15.3
2022-10-06T10:17:49.383Z,15.3
2022-10-06T10:18:49.390Z,15.3
2022-10-06T10:19:49.371Z,15.3
2022-10-06T10:20:49.373Z,15.3
2022-10-06T10:21:49.345Z,15.3
2022-10-06T10:22:49.356Z,15.3
2022-10-06T10:23:49.386Z,15.3
2022-10-06T10:24:49.359Z,15.3
2022-10-06T10:25:49.417Z,15.3
2022-10-06T10:26:49.363Z,15.3
2022-10-06T10:27:49.365Z,15.3
2022-10-06T10:28:49.382Z,15.3
2022-10-06T10:29:49.370Z,15.3
2022-10-06T10:30:49.355Z,15.3
2022-10-06T10:31:49.457Z,15.3
2022-10-06T10:32:49.344Z,15.3
2022-10-06T10:33:59.262Z,15.3
2022-10-06T10:34:49.377Z,15.3
2022-10-06T10:35:49.371Z,15.3
2022-10-06T10:36:49.368Z,15.4
2022-10-06T10:37:49.409Z,15.4
2022-10-06T10:38:49.357Z,15.4
2022-10-06T10:39:49.377Z,15.4
2022-10-06T10:40:49.367Z,15.4
2022-10-06T10:41:49.344Z,15.4
2022-10-06T10:42:49.370Z,15.4
2022-10-06T10:43:49.367Z,15.4
2022-10-06T10:44:49.390Z,15.4
2022-10-06T10:45:49.371Z,15.4
2022-10-06T10:46:49.479Z,15.3
2022-10-06T10:47:49.360Z,15.4
2022-10-06T10:48:49.339Z,15.4
2022-10-06T10:49:49.366Z,15.4
2022-10-06T10:50:49.374Z,15.4
2022-10-06T10:51:49.348Z,15.3
2022-10-06T10:52:49.343Z,15.4
2022-10-06T10:53:49.357Z,15.4
2022-10-06T10:54:49.405Z,15.4
2022-10-06T10:55:49.364Z,15.4
2022-10-06T10:56:49.374Z,15.4
2022-10-06T10:57:49.335Z,15.4
2022-10-06T10:58:49.367Z,15.3
2022-10-06T10:59:49.367Z,15.4
2022-10-06T11:00:49.395Z,15.4
2022-10-06T11:01:49.400Z,15.4
2022-10-06T11:02:49.359Z,15.3
2022-10-06T11:03:49.361Z,15.4
2022-10-06T11:04:49.351Z,15.4
2022-10-06T11:05:49.357Z,15.4
2022-10-06T11:06:49.339Z,15.4
2022-10-06T11:07:49.364Z,15.4
2022-10-06T11:08:49.349Z,15.4
2022-10-06T11:09:49.355Z,15.4
2022-10-06T11:10:49.369Z,15.4
2022-10-06T11:11:52.259Z,15.4
2022-10-06T11:12:49.373Z,15.4
2022-10-06T11:13:49.369Z,15.4
2022-10-06T11:14:49.353Z,15.4
2022-10-06T11:15:49.339Z,15.4
2022-10-06T11:16:49.357Z,15.4
2022-10-06T11:17:49.365Z,15.4
2022-10-06T11:18:49.373Z,15.4
2022-10-06T11:19:49.362Z,15.4
2022-10-06T11:20:49.377Z,15.4
2022-10-06T11:21:49.363Z,15.4
2022-10-06T11:22:49.350Z,15.4
2022-10-06T11:23:49.337Z,15.4
2022-10-06T11:24:49.391Z,15.4
2022-10-06T11:25:49.375Z,15.4
2022-10-06T11:26:49.360Z,15.4
2022-10-06T11:27:49.367Z,15.4
2022-10-06T11:28:49.385Z,15.4
2022-10-06T11:29:49.340Z,15.5
2022-10-06T11:30:49.358Z,15.6
2022-10-06T11:31:49.418Z,15.5
2022-10-06T11:32:49.362Z,15.8
2022-10-06T11:33:49.338Z,15.6
2022-10-06T11:34:49.356Z,15.6
2022-10-06T11:35:49.359Z,15.9
2022-10-06T11:36:49.362Z,16.3
2022-10-06T11:37:49.354Z,16.8
2022-10-06T11:38:49.354Z,16.5
2022-10-06T11:39:49.360Z,16.4
2022-10-06T11:40:49.354Z,16.3
2022-10-06T11:41:49.349Z,16.2
2022-10-06T11:42:49.373Z,16.1
2022-10-06T11:43:49.339Z,15.9
2022-10-06T11:44:49.330Z,15.9
2022-10-06T11:45:49.453Z,15.8
2022-10-06T11:46:49.379Z,15.8
2022-10-06T11:47:49.331Z,15.8
2022-10-06T11:48:49.342Z,15.8
2022-10-06T11:49:49.333Z,15.8
2022-10-06T11:50:49.336Z,15.8
2022-10-06T11:51:49.375Z,15.8
2022-10-06T11:52:49.357Z,15.7
2022-10-06T11:53:49.339Z,15.7
2022-10-06T11:54:49.364Z,15.6
2022-10-06T11:55:49.339Z,15.6
2022-10-06T11:56:49.375Z,15.6
2022-10-06T11:57:49.365Z,15.6
2022-10-06T11:58:49.450Z,15.6
2022-10-06T11:59:49.355Z,15.6
2022-10-06T12:00:49.359Z,15.6
2022-10-06T12:01:49.388Z,15.6
2022-10-06T12:02:49.453Z,15.6
2022-10-06T12:03:49.332Z,15.6
2022-10-06T12:04:49.342Z,15.6
2022-10-06T12:05:56.080Z,15.6
2022-10-06T12:06:49.367Z,15.6
2022-10-06T12:07:49.416Z,15.6
2022-10-06T12:08:49.354Z,15.6
2022-10-06T12:09:52.413Z,15.6
2022-10-06T12:10:49.373Z,15.6
2022-10-06T12:11:49.327Z,15.6
2022-10-06T12:13:05.734Z,15.6
2022-10-06T12:14:44.454Z,15.5
2022-10-06T12:17:14.039Z,15.5
2022-10-06T12:18:08.667Z,15.5
2022-10-06T12:19:08.694Z,15.5
2022-10-06T12:20:08.693Z,15.5
2022-10-06T12:21:08.675Z,15.5
2022-10-06T12:22:08.678Z,15.5
2022-10-06T12:23:08.675Z,15.5
2022-10-06T12:24:08.779Z,15.5
2022-10-06T12:25:08.689Z,15.5
2022-10-06T12:26:08.684Z,15.6
2022-10-06T12:27:08.666Z,15.6
2022-10-06T12:28:08.730Z,15.6
2022-10-06T12:29:08.704Z,15.7
2022-10-06T12:30:08.717Z,15.9
2022-10-06T12:31:08.726Z,16.2
2022-10-06T12:32:08.668Z,16.5
2022-10-06T12:33:08.688Z,16.7
2022-10-06T12:34:08.691Z,16.6
2022-10-06T12:35:08.697Z,16.6
2022-10-06T12:36:08.688Z,16.4
2022-10-06T12:37:08.663Z,16.4
2022-10-06T12:38:08.669Z,16.3
2022-10-06T12:39:08.679Z,16.1
2022-10-06T12:40:08.753Z,16.1
2022-10-06T12:41:08.674Z,15.9
2022-10-06T12:42:08.693Z,15.9
2022-10-06T12:43:08.704Z,15.8
2022-10-06T12:44:08.665Z,15.8
2022-10-06T12:45:08.684Z,15.8
2022-10-06T12:46:08.696Z,15.7
2022-10-06T12:47:08.694Z,15.7
2022-10-06T12:48:08.687Z,15.6
2022-10-06T12:49:08.671Z,15.6
2022-10-06T12:50:08.675Z,15.6
2022-10-06T12:51:08.652Z,15.6
2022-10-06T12:52:08.668Z,15.6
2022-10-06T12:53:08.668Z,15.6
2022-10-06T12:54:08.674Z,15.5
2022-10-06T12:55:08.689Z,15.6
2022-10-06T12:56:08.690Z,15.6
2022-10-06T12:57:08.695Z,15.5
2022-10-06T12:58:08.664Z,15.5
2022-10-06T12:59:08.668Z,15.5
2022-10-06T13:00:08.696Z,15.5
2022-10-06T13:01:08.713Z,15.5
2022-10-06T13:02:08.719Z,15.5
2022-10-06T13:03:08.692Z,15.5
2022-10-06T13:04:08.690Z,15.5
2022-10-06T13:05:08.683Z,15.5
2022-10-06T13:06:11.645Z,15.5
2022-10-06T13:07:08.894Z,15.5
2022-10-06T13:08:08.674Z,15.5
2022-10-06T13:09:08.676Z,15.5
2022-10-06T13:10:08.696Z,15.5
2022-10-06T13:11:08.890Z,15.4
2022-10-06T13:12:08.672Z,15.5
2022-10-06T13:13:08.658Z,15.5
2022-10-06T13:14:08.709Z,15.5
2022-10-06T13:15:08.678Z,15.7
2022-10-06T13:16:08.680Z,15.9
2022-10-06T13:17:08.753Z,16
2022-10-06T13:18:08.665Z,16
2022-10-06T13:19:08.685Z,16
2022-10-06T13:20:08.683Z,15.9
2022-10-06T13:21:08.675Z,15.9